Terminal Aerodrome Forecast
Issued by NWS Goodland, KS

Home | Current Version | Previous Version | Graphics & Text | Print | Product List | Glossary On
Versions: 1 2 3 4 5 6 7 8 9 10 11 12 13 14
000
FTUS43 KGLD 271120
TAFGLD
TAF
KGLD 271120Z 2712/2812 18014G20KT P6SM FEW080 SCT200
     FM271700 16021G31KT P6SM SCT090 BKN110
     FM272000 16024G34KT P6SM VCTS FEW090CB SCT100
     FM272300 15019G28KT P6SM VCTS SCT080CB BKN100 WS015/18030KT
     FM280500 14014KT P6SM SCT110
     FM280900 16014KT P6SM FEW200 WS020/17060KT=

USA.gov is the U.S. government's official web portal to all federal, state and local government web resources and services.